UKOH/KHE METAR and TAF weather

Enter ICAO airport designator
Station Type Date Time Source
UKOH METAR 2019/10/22 17:00 UTC NOAA

UKOH 221700Z 01004MPS 0150 0100SW FG VV001 10/10 Q1025 R03/CLRD// NOSIG


Station Type Date Time Source
UKOH Decoded METAR 2019/10/22 17:00 UTC NOAA

Station name not available
Oct 22, 2019 - 01:00 PM EDT / 2019.10.22 1700 UTC
Wind: from the N (010 degrees) at 9 MPH (8 KT):0
Visibility: less than 1 mile:0
Sky conditions: obscured
Weather: fog
Temperature: 50 F (10 C)
Dew Point: 50 F (10 C)
Relative Humidity: 100%
Pressure (altimeter): 30.27 in. Hg (1025 hPa)
ob: UKOH 221700Z 01004MPS 0150 0100SW FG VV001 10/10 Q1025 R03/CLRD// NOSIG
cycle: 17

Station Type Date Time Source
UKOH TAF UTC NOAA

Error!

Example: see airport list